createdAt,value
2023-03-06T00:02:03.817Z,9.36
2023-03-06T00:04:45.530Z,9.40
2023-03-06T00:07:41.300Z,9.50
2023-03-06T00:10:14.689Z,9.65
2023-03-06T00:12:41.464Z,9.43
2023-03-06T00:18:02.187Z,9.83
2023-03-06T00:20:28.803Z,9.35
2023-03-06T00:22:58.417Z,9.22
2023-03-06T00:25:25.626Z,9.23
2023-03-06T00:28:01.490Z,9.28
2023-03-06T00:30:37.442Z,9.39
2023-03-06T00:33:07.754Z,9.47
2023-03-06T00:35:52.630Z,9.15
2023-03-06T00:38:25.812Z,9.17
2023-03-06T00:41:09.420Z,9.06
2023-03-06T00:43:36.167Z,8.91
2023-03-06T00:46:05.654Z,9.06
2023-03-06T00:48:33.289Z,8.91
2023-03-06T00:51:03.134Z,8.82
2023-03-06T00:53:29.702Z,8.66
2023-03-06T00:55:56.282Z,8.78
2023-03-06T00:58:22.904Z,8.76
2023-03-06T01:00:49.519Z,8.74
2023-03-06T01:03:16.427Z,8.66
2023-03-06T01:06:02.829Z,8.64
2023-03-06T01:08:34.507Z,8.57
2023-03-06T01:11:04.940Z,8.60
2023-03-06T01:13:40.827Z,8.59
2023-03-06T01:16:10.056Z,8.55
2023-03-06T01:18:45.453Z,8.64
2023-03-06T01:21:18.903Z,8.68
2023-03-06T01:23:45.587Z,8.61
2023-03-06T01:26:12.239Z,8.65
2023-03-06T01:28:38.896Z,8.62
2023-03-06T01:31:09.498Z,8.54
2023-03-06T01:33:41.453Z,9.09
2023-03-06T01:36:11.418Z,9.06
2023-03-06T01:38:40.844Z,8.79
2023-03-06T01:41:13.392Z,8.89
2023-03-06T01:43:42.040Z,8.84
2023-03-06T01:46:29.497Z,8.66
2023-03-06T01:49:04.310Z,8.65
2023-03-06T01:51:35.998Z,8.96
2023-03-06T01:54:07.605Z,8.78
2023-03-06T01:56:34.887Z,8.67
2023-03-06T01:59:07.514Z,8.80
2023-03-06T02:01:44.924Z,8.73
2023-03-06T02:04:11.901Z,8.69
2023-03-06T02:06:41.294Z,8.57
2023-03-06T02:09:07.881Z,8.47
2023-03-06T02:11:34.563Z,8.49
2023-03-06T02:14:10.890Z,8.55
2023-03-06T02:16:45.024Z,8.59
2023-03-06T02:19:28.223Z,8.78
2023-03-06T02:21:57.914Z,8.75
2023-03-06T02:24:35.529Z,8.82
2023-03-06T02:27:04.265Z,8.85
2023-03-06T02:29:34.070Z,8.69
2023-03-06T02:32:04.689Z,8.82
2023-03-06T02:34:46.626Z,8.72
2023-03-06T02:37:16.531Z,8.70
2023-03-06T02:39:51.798Z,8.76
2023-03-06T02:42:25.279Z,8.74
2023-03-06T02:44:57.576Z,8.82
2023-03-06T02:47:26.218Z,8.77
2023-03-06T02:50:01.973Z,8.98
2023-03-06T02:52:31.743Z,8.83
2023-03-06T02:55:04.543Z,9.01
2023-03-06T02:57:38.264Z,9.02
2023-03-06T03:00:14.922Z,8.92
2023-03-06T03:02:41.920Z,8.95
2023-03-06T03:05:08.993Z,8.81
2023-03-06T03:07:36.084Z,8.91
2023-03-06T03:10:05.921Z,8.98
2023-03-06T03:12:35.358Z,9.06
2023-03-06T03:15:02.046Z,8.94
2023-03-06T03:17:36.189Z,8.82
2023-03-06T03:20:04.959Z,8.87
2023-03-06T03:22:47.200Z,9.06
2023-03-06T03:25:18.050Z,9.03
2023-03-06T03:27:47.486Z,9.13
2023-03-06T03:30:27.345Z,9.28
2023-03-06T03:32:54.011Z,9.09
2023-03-06T03:35:23.909Z,8.95
2023-03-06T03:37:50.598Z,8.98
2023-03-06T03:40:17.329Z,9.02
2023-03-06T03:42:51.320Z,8.88
2023-03-06T03:45:28.004Z,8.81
2023-03-06T03:48:06.650Z,8.74
2023-03-06T03:50:39.943Z,8.72
2023-03-06T03:53:07.473Z,8.82
2023-03-06T03:55:34.141Z,8.83
2023-03-06T03:58:00.717Z,8.74
2023-03-06T04:00:41.613Z,8.69
2023-03-06T04:03:11.323Z,8.64
2023-03-06T04:05:47.284Z,8.68
2023-03-06T04:08:14.223Z,8.73
2023-03-06T04:10:47.277Z,8.70
2023-03-06T04:13:25.758Z,8.71
2023-03-06T04:15:54.382Z,8.64
2023-03-06T04:18:25.335Z,8.54
2023-03-06T04:21:11.525Z,8.96
2023-03-06T04:23:44.366Z,9.02
2023-03-06T04:26:10.964Z,8.60
2023-03-06T04:28:40.560Z,8.54
2023-03-06T04:31:07.182Z,8.43
2023-03-06T04:33:33.836Z,8.57
2023-03-06T04:36:03.690Z,8.56
2023-03-06T04:38:30.343Z,8.59
2023-03-06T04:40:56.974Z,8.65
2023-03-06T04:43:26.593Z,8.65
2023-03-06T04:45:53.236Z,8.61
2023-03-06T04:48:22.247Z,8.56
2023-03-06T04:50:51.710Z,8.68
2023-03-06T04:53:18.304Z,8.63
2023-03-06T04:55:48.107Z,8.50
2023-03-06T04:58:17.384Z,8.34
2023-03-06T05:00:44.159Z,8.22
2023-03-06T05:03:17.639Z,8.08
2023-03-06T05:05:44.308Z,8.00
2023-03-06T05:08:18.813Z,8.09
2023-03-06T05:10:46.542Z,8.00
2023-03-06T05:13:13.228Z,7.96
2023-03-06T05:15:40.820Z,7.95
2023-03-06T05:18:07.418Z,7.91
2023-03-06T05:20:33.993Z,7.90
2023-03-06T05:23:11.602Z,7.86
2023-03-06T05:25:47.715Z,7.81
2023-03-06T05:28:14.330Z,7.84
2023-03-06T05:30:46.933Z,7.87
2023-03-06T05:33:13.526Z,7.77
2023-03-06T05:35:45.789Z,7.82
2023-03-06T05:38:16.995Z,8.09
2023-03-06T05:40:57.344Z,7.99
2023-03-06T05:43:23.898Z,8.06
2023-03-06T05:46:00.939Z,8.03
2023-03-06T05:48:30.489Z,8.10
2023-03-06T05:51:11.102Z,8.02
2023-03-06T05:53:47.526Z,7.99
2023-03-06T05:56:28.984Z,7.99
2023-03-06T05:58:56.234Z,7.99
2023-03-06T06:01:22.968Z,7.91
2023-03-06T06:03:51.323Z,7.95
2023-03-06T06:06:22.850Z,8.06
2023-03-06T06:08:56.641Z,8.07
2023-03-06T06:11:26.055Z,8.07
2023-03-06T06:13:55.488Z,8.14
2023-03-06T06:16:22.090Z,8.29
2023-03-06T06:18:48.694Z,8.21
2023-03-06T06:21:16.268Z,8.20
2023-03-06T06:23:49.276Z,8.22
2023-03-06T06:26:16.835Z,8.25
2023-03-06T06:28:53.160Z,8.30
2023-03-06T06:31:22.226Z,8.40
2023-03-06T06:34:06.514Z,8.46
2023-03-06T06:36:40.465Z,8.83
2023-03-06T06:39:11.083Z,8.99
2023-03-06T06:41:55.452Z,8.74
2023-03-06T06:44:23.874Z,8.71
2023-03-06T06:49:37.213Z,8.84
2023-03-06T06:52:07.330Z,8.93
2023-03-06T06:54:34.700Z,8.87
2023-03-06T06:57:01.416Z,8.92
2023-03-06T06:59:28.123Z,9.07
2023-03-06T07:01:57.848Z,9.10
2023-03-06T07:04:24.390Z,9.15
2023-03-06T07:06:51.075Z,9.21
2023-03-06T07:09:17.702Z,9.31
2023-03-06T07:11:44.356Z,9.49
2023-03-06T07:14:11.612Z,9.52
2023-03-06T07:16:38.189Z,9.67
2023-03-06T07:19:04.798Z,9.61
2023-03-06T07:21:31.663Z,9.56
2023-03-06T07:23:59.737Z,9.51
2023-03-06T07:26:34.397Z,9.41
2023-03-06T07:29:05.549Z,9.31
2023-03-06T07:31:32.357Z,9.33
2023-03-06T07:34:04.705Z,9.48
2023-03-06T07:36:32.153Z,9.49
2023-03-06T07:39:05.644Z,9.67
2023-03-06T07:41:38.275Z,9.74
2023-03-06T07:44:05.053Z,10.07
2023-03-06T07:46:33.909Z,10.07
2023-03-06T07:49:00.527Z,10.01
2023-03-06T07:51:32.769Z,10.10
2023-03-06T07:53:59.565Z,10.25
2023-03-06T07:56:26.246Z,10.48
2023-03-06T07:58:52.966Z,10.48
2023-03-06T08:01:21.443Z,10.50
2023-03-06T08:03:48.224Z,10.68
2023-03-06T08:06:17.565Z,11.02
2023-03-06T08:08:45.756Z,11.09
2023-03-06T08:11:14.094Z,11.10
2023-03-06T08:13:42.255Z,11.18
2023-03-06T08:16:10.412Z,11.51
2023-03-06T08:18:37.537Z,11.62
2023-03-06T08:21:10.117Z,11.70
2023-03-06T08:23:36.784Z,11.91
2023-03-06T08:26:08.404Z,11.79
2023-03-06T08:28:35.349Z,12.05
2023-03-06T08:31:29.002Z,12.09
2023-03-06T08:33:57.893Z,12.21
2023-03-06T08:36:24.521Z,12.26
2023-03-06T08:39:04.789Z,12.12
2023-03-06T08:41:42.556Z,12.22
2023-03-06T08:44:13.186Z,12.14
2023-03-06T08:46:40.397Z,12.30
2023-03-06T08:49:07.126Z,12.07
2023-03-06T08:51:33.800Z,12.00
2023-03-06T08:54:00.416Z,12.00
2023-03-06T08:56:32.678Z,12.15
2023-03-06T08:59:11.156Z,12.19
2023-03-06T09:01:44.623Z,12.24
2023-03-06T09:04:14.265Z,12.23
2023-03-06T09:06:45.306Z,12.28
2023-03-06T09:09:19.924Z,12.25
2023-03-06T09:11:47.185Z,12.38
2023-03-06T09:14:14.427Z,12.40
2023-03-06T09:16:41.148Z,12.50
2023-03-06T09:19:07.729Z,12.68
2023-03-06T09:21:44.948Z,12.73
2023-03-06T09:24:12.050Z,12.65
2023-03-06T09:26:46.461Z,12.67
2023-03-06T09:29:14.397Z,12.58
2023-03-06T09:31:47.498Z,12.62
2023-03-06T09:34:17.423Z,12.68
2023-03-06T09:39:29.679Z,12.74
2023-03-06T09:41:57.102Z,12.76
2023-03-06T09:44:27.866Z,12.85
2023-03-06T09:47:08.262Z,12.91
2023-03-06T09:49:58.613Z,12.93
2023-03-06T09:52:51.044Z,12.95
2023-03-06T09:55:21.749Z,12.87
2023-03-06T09:58:19.946Z,12.92
2023-03-06T10:01:05.091Z,13.02
2023-03-06T10:04:05.025Z,13.04
2023-03-06T10:06:37.766Z,13.16
2023-03-06T10:09:21.384Z,13.20
2023-03-06T10:11:57.281Z,13.22
2023-03-06T10:14:38.224Z,13.34
2023-03-06T10:17:17.849Z,13.53
2023-03-06T10:19:47.870Z,13.60
2023-03-06T10:22:34.382Z,13.94
2023-03-06T10:25:19.648Z,13.81
2023-03-06T10:28:20.048Z,13.86
2023-03-06T10:31:08.869Z,13.75
2023-03-06T10:33:41.822Z,13.92
2023-03-06T10:36:14.617Z,13.89
2023-03-06T10:38:46.865Z,14.13
2023-03-06T10:41:33.423Z,14.17
2023-03-06T10:44:02.974Z,14.12
2023-03-06T10:46:37.078Z,14.19
2023-03-06T10:49:23.397Z,14.23
2023-03-06T10:52:19.426Z,14.13
2023-03-06T10:55:15.316Z,14.06
2023-03-06T10:57:44.976Z,14.10
2023-03-06T11:00:34.351Z,13.93
2023-03-06T11:03:24.244Z,13.96
2023-03-06T11:06:42.342Z,13.86
2023-03-06T11:09:26.547Z,13.90
2023-03-06T11:12:13.183Z,13.95
2023-03-06T11:14:39.800Z,13.94
2023-03-06T11:17:35.538Z,13.80
2023-03-06T11:20:20.160Z,13.74
2023-03-06T11:22:52.377Z,13.68
2023-03-06T11:25:26.451Z,13.68
2023-03-06T11:28:01.745Z,13.61
2023-03-06T11:31:02.205Z,13.66
2023-03-06T11:33:51.539Z,13.64
2023-03-06T11:36:23.736Z,13.56
2023-03-06T11:38:52.180Z,13.56
2023-03-06T11:41:48.771Z,13.50
2023-03-06T11:44:45.630Z,13.56
2023-03-06T11:47:46.504Z,13.56
2023-03-06T11:50:32.858Z,13.45
2023-03-06T11:53:08.300Z,13.38
2023-03-06T11:56:19.674Z,13.45
2023-03-06T11:59:19.423Z,13.49
2023-03-06T12:02:21.144Z,13.39
2023-03-06T12:05:29.918Z,13.42
2023-03-06T12:08:25.596Z,13.49
2023-03-06T12:11:11.380Z,13.60
2023-03-06T12:14:04.134Z,13.47
2023-03-06T12:16:58.390Z,13.49
2023-03-06T12:19:30.287Z,13.53
2023-03-06T12:22:34.592Z,13.67
2023-03-06T12:25:32.018Z,13.46
2023-03-06T12:28:13.108Z,13.51
2023-03-06T12:31:03.721Z,13.64
2023-03-06T12:34:10.778Z,13.68
2023-03-06T12:36:59.003Z,13.68
2023-03-06T12:39:42.664Z,13.68
2023-03-06T12:42:34.594Z,13.68
2023-03-06T12:45:04.231Z,13.81
2023-03-06T12:47:40.492Z,13.73
2023-03-06T12:50:35.910Z,13.76
2023-03-06T12:53:20.764Z,13.78
2023-03-06T12:56:04.044Z,13.72
2023-03-06T12:58:46.316Z,13.76
2023-03-06T13:01:53.036Z,13.88
2023-03-06T13:04:52.698Z,14.00
2023-03-06T13:07:29.382Z,14.16
2023-03-06T13:10:12.753Z,14.31
2023-03-06T13:12:52.231Z,14.37
2023-03-06T13:15:44.065Z,14.37
2023-03-06T13:18:22.643Z,14.36
2023-03-06T13:23:33.090Z,14.44
2023-03-06T13:26:22.374Z,14.43
2023-03-06T13:28:58.730Z,14.34
2023-03-06T13:31:34.566Z,14.16
2023-03-06T13:34:03.784Z,14.20
2023-03-06T13:36:39.473Z,14.04
2023-03-06T13:39:19.810Z,13.95
2023-03-06T13:42:00.295Z,13.96
2023-03-06T13:44:30.065Z,13.99
2023-03-06T13:47:20.457Z,13.97
2023-03-06T13:49:52.757Z,14.02
2023-03-06T13:52:37.346Z,13.97
2023-03-06T13:55:12.612Z,13.91
2023-03-06T13:57:59.971Z,13.98
2023-03-06T14:00:54.846Z,13.92
2023-03-06T14:03:52.541Z,13.81
2023-03-06T14:09:29.543Z,13.82
2023-03-06T14:12:36.163Z,13.84
2023-03-06T14:15:23.946Z,13.99
2023-03-06T14:18:07.255Z,13.90
2023-03-06T14:20:39.938Z,13.95
2023-03-06T14:23:21.554Z,13.98
2023-03-06T14:25:59.543Z,13.87
2023-03-06T14:28:40.827Z,13.95
2023-03-06T14:31:20.887Z,13.94
2023-03-06T14:33:55.739Z,13.92
2023-03-06T14:36:25.975Z,13.96
2023-03-06T14:39:31.944Z,13.89
2023-03-06T14:42:24.538Z,13.78
2023-03-06T14:45:17.894Z,13.70
2023-03-06T14:48:04.313Z,13.70
2023-03-06T14:50:40.981Z,13.72
2023-03-06T14:53:30.430Z,13.74
2023-03-06T14:56:00.109Z,13.68
2023-03-06T14:58:40.747Z,13.63
2023-03-06T15:01:10.559Z,13.68
2023-03-06T15:03:51.473Z,13.70
2023-03-06T15:06:32.548Z,13.80
2023-03-06T15:09:05.846Z,13.76
2023-03-06T15:11:55.100Z,13.76
2023-03-06T15:14:30.715Z,13.76
2023-03-06T15:17:18.788Z,13.84
2023-03-06T15:19:50.475Z,13.87
2023-03-06T15:22:46.054Z,13.88
2023-03-06T15:25:35.074Z,13.78
2023-03-06T15:28:22.869Z,13.87
2023-03-06T15:31:13.870Z,13.81
2023-03-06T15:33:40.491Z,13.75
2023-03-06T15:36:20.934Z,13.68
2023-03-06T15:38:55.779Z,13.67
2023-03-06T15:41:36.725Z,13.70
2023-03-06T15:44:11.026Z,13.56
2023-03-06T15:46:37.699Z,13.47
2023-03-06T15:49:04.388Z,13.65
2023-03-06T15:51:32.633Z,13.59
2023-03-06T15:54:11.899Z,13.68
2023-03-06T15:56:48.199Z,13.56
2023-03-06T15:59:42.975Z,13.47
2023-03-06T16:02:18.779Z,13.49
2023-03-06T16:04:48.914Z,13.54
2023-03-06T16:07:19.325Z,13.51
2023-03-06T16:09:45.994Z,13.52
2023-03-06T16:12:25.063Z,13.59
2023-03-06T16:14:58.166Z,13.52
2023-03-06T16:17:24.846Z,13.53
2023-03-06T16:19:51.824Z,13.32
2023-03-06T16:22:22.632Z,13.59
2023-03-06T16:24:49.284Z,13.44
2023-03-06T16:27:29.453Z,13.50
2023-03-06T16:29:56.644Z,13.33
2023-03-06T16:32:23.441Z,13.30
2023-03-06T16:34:50.112Z,13.30
2023-03-06T16:37:16.993Z,13.22
2023-03-06T16:39:43.804Z,13.05
2023-03-06T16:42:13.618Z,13.12
2023-03-06T16:44:40.527Z,13.04
2023-03-06T16:47:14.619Z,12.97
2023-03-06T16:49:41.326Z,12.85
2023-03-06T16:52:16.311Z,13.13
2023-03-06T16:54:44.811Z,12.92
2023-03-06T16:57:27.395Z,12.99
2023-03-06T16:59:56.851Z,13.04
2023-03-06T17:02:26.494Z,12.75
2023-03-06T17:04:55.751Z,12.80
2023-03-06T17:07:23.793Z,12.78
2023-03-06T17:09:50.391Z,12.78
2023-03-06T17:12:17.061Z,12.79
2023-03-06T17:14:43.693Z,12.79
2023-03-06T17:17:10.298Z,12.76
2023-03-06T17:19:36.910Z,12.72
2023-03-06T17:22:03.674Z,12.73
2023-03-06T17:24:31.618Z,12.59
2023-03-06T17:26:58.237Z,12.49
2023-03-06T17:29:24.866Z,12.58
2023-03-06T17:31:51.520Z,12.55
2023-03-06T17:34:18.346Z,12.54
2023-03-06T17:36:44.960Z,12.60
2023-03-06T17:39:11.590Z,12.35
2023-03-06T17:41:38.286Z,12.32
2023-03-06T17:44:05.427Z,12.32
2023-03-06T17:46:32.181Z,12.28
2023-03-06T17:48:58.888Z,12.38
2023-03-06T17:51:25.558Z,12.29
2023-03-06T17:53:52.145Z,12.28
2023-03-06T17:56:18.805Z,12.23
2023-03-06T17:58:45.650Z,12.29
2023-03-06T18:01:23.974Z,12.36
2023-03-06T18:03:51.706Z,12.23
2023-03-06T18:06:19.505Z,12.31
2023-03-06T18:08:47.326Z,12.10
2023-03-06T18:11:14.659Z,11.95
2023-03-06T18:13:43.608Z,11.95
2023-03-06T18:16:15.897Z,11.89
2023-03-06T18:18:42.563Z,11.86
2023-03-06T18:21:15.504Z,11.88
2023-03-06T18:23:56.286Z,12.04
2023-03-06T18:26:25.780Z,11.88
2023-03-06T18:28:58.212Z,11.94
2023-03-06T18:31:34.700Z,12.01
2023-03-06T18:34:14.741Z,11.91
2023-03-06T18:36:42.284Z,11.79
2023-03-06T18:39:12.516Z,12.06
2023-03-06T18:41:57.786Z,12.04
2023-03-06T18:44:24.557Z,11.78
2023-03-06T18:46:57.929Z,11.79
2023-03-06T18:49:46.270Z,11.76
2023-03-06T18:52:15.526Z,11.81
2023-03-06T18:54:42.289Z,11.80
2023-03-06T18:57:30.418Z,11.77
2023-03-06T19:00:00.558Z,11.66
2023-03-06T19:02:27.481Z,11.60
2023-03-06T19:04:57.059Z,11.64
2023-03-06T19:07:24.475Z,11.50
2023-03-06T19:09:51.077Z,11.52
2023-03-06T19:12:18.787Z,11.53
2023-03-06T19:14:45.423Z,11.65
2023-03-06T19:17:12.015Z,11.46
2023-03-06T19:19:38.703Z,11.52
2023-03-06T19:22:05.324Z,11.70
2023-03-06T19:24:32.133Z,11.82
2023-03-06T19:26:58.740Z,11.93
2023-03-06T19:29:27.599Z,12.03
2023-03-06T19:31:57.545Z,11.94
2023-03-06T19:34:26.726Z,11.95
2023-03-06T19:36:56.269Z,11.98
2023-03-06T19:39:25.696Z,12.07
2023-03-06T19:41:52.473Z,12.04
2023-03-06T19:44:21.830Z,11.78
2023-03-06T19:49:31.813Z,11.67
2023-03-06T19:51:58.401Z,11.71
2023-03-06T19:54:32.590Z,11.69
2023-03-06T19:56:59.458Z,11.70
2023-03-06T19:59:27.907Z,11.60
2023-03-06T20:01:54.610Z,11.74
2023-03-06T20:04:21.206Z,11.88
2023-03-06T20:06:54.776Z,11.60
2023-03-06T20:09:21.450Z,11.56
2023-03-06T20:11:54.575Z,11.54
2023-03-06T20:14:25.372Z,11.54
2023-03-06T20:16:57.655Z,11.40
2023-03-06T20:19:26.944Z,11.53
2023-03-06T20:22:06.419Z,11.58
2023-03-06T20:24:32.989Z,11.62
2023-03-06T20:27:05.677Z,11.53
2023-03-06T20:29:32.313Z,11.57
2023-03-06T20:32:02.012Z,11.45
2023-03-06T20:34:28.624Z,11.42
2023-03-06T20:36:55.276Z,11.40
2023-03-06T20:39:26.902Z,11.52
2023-03-06T20:41:59.451Z,11.94
2023-03-06T20:44:29.450Z,11.90
2023-03-06T20:46:58.767Z,11.78
2023-03-06T20:49:34.331Z,11.72
2023-03-06T20:52:00.910Z,11.81
2023-03-06T20:54:27.509Z,11.70
2023-03-06T20:56:54.064Z,11.69
2023-03-06T20:59:20.896Z,11.54
2023-03-06T21:01:50.549Z,11.53
2023-03-06T21:04:19.601Z,11.34
2023-03-06T21:06:49.149Z,11.52
2023-03-06T21:09:24.731Z,11.35
2023-03-06T21:11:51.314Z,11.65
2023-03-06T21:14:17.931Z,11.51
2023-03-06T21:16:47.751Z,11.46
2023-03-06T21:19:32.473Z,11.33
2023-03-06T21:22:01.127Z,11.40
2023-03-06T21:24:28.027Z,11.25
2023-03-06T21:26:54.880Z,11.31
2023-03-06T21:29:29.697Z,11.46
2023-03-06T21:32:02.368Z,11.31
2023-03-06T21:34:35.091Z,11.35
2023-03-06T21:37:10.493Z,11.38
2023-03-06T21:39:39.802Z,11.36
2023-03-06T21:42:06.541Z,11.33
2023-03-06T21:44:41.060Z,11.25
2023-03-06T21:47:10.802Z,11.21
2023-03-06T21:49:45.908Z,11.12
2023-03-06T21:52:22.499Z,11.22
2023-03-06T21:54:51.946Z,11.11
2023-03-06T21:57:18.469Z,11.11
2023-03-06T21:59:47.964Z,11.22
2023-03-06T22:02:17.450Z,10.94
2023-03-06T22:05:02.334Z,10.87
2023-03-06T22:07:29.920Z,10.91
2023-03-06T22:09:56.717Z,10.91
2023-03-06T22:12:34.160Z,10.84
2023-03-06T22:15:00.759Z,10.73
2023-03-06T22:17:28.435Z,10.88
2023-03-06T22:19:55.759Z,10.76
2023-03-06T22:22:22.420Z,10.76
2023-03-06T22:24:51.398Z,10.65
2023-03-06T22:27:17.998Z,10.56
2023-03-06T22:29:45.688Z,10.65
2023-03-06T22:32:16.009Z,10.69
2023-03-06T22:34:42.662Z,10.71
2023-03-06T22:37:20.606Z,10.64
2023-03-06T22:39:56.487Z,10.50
2023-03-06T22:42:30.584Z,10.37
2023-03-06T22:44:57.227Z,10.58
2023-03-06T22:47:37.168Z,10.61
2023-03-06T22:50:07.193Z,10.41
2023-03-06T22:52:41.970Z,10.35
2023-03-06T22:55:09.492Z,10.35
2023-03-06T22:57:43.067Z,10.37
2023-03-06T23:00:14.392Z,10.46
2023-03-06T23:02:56.626Z,10.32
2023-03-06T23:05:29.344Z,10.28
2023-03-06T23:07:56.069Z,10.26
2023-03-06T23:10:22.703Z,10.24
2023-03-06T23:12:52.066Z,10.19
2023-03-06T23:15:21.310Z,10.24
2023-03-06T23:17:53.893Z,10.22
2023-03-06T23:23:13.798Z,10.24
2023-03-06T23:25:42.940Z,10.14
2023-03-06T23:28:09.517Z,10.27
2023-03-06T23:30:39.049Z,10.08
2023-03-06T23:33:07.866Z,10.11
2023-03-06T23:35:45.498Z,10.24
2023-03-06T23:38:18.094Z,10.31
2023-03-06T23:40:44.692Z,10.11
2023-03-06T23:43:13.005Z,10.32
2023-03-06T23:45:39.768Z,10.33
2023-03-06T23:48:09.386Z,10.49
2023-03-06T23:50:47.907Z,10.24
2023-03-06T23:53:14.636Z,10.15
2023-03-06T23:55:48.765Z,10.12
2023-03-06T23:58:25.811Z,10.00
